DAL626 KLAX-RJTT
Flight info
| Callsign | DAL626 |
|---|---|
| Flight time | N/A |
| Altitude | 30000 |
| Route | SUMMR2 MCKEY DCT LIBBO DCT BRINY DCT BOARS DCT AMAKR DCT REDWD DCT UNVER DCT 42N130W/N0472F320 46N140W 50N150W 52N160W/N0467F340 53N170W 53N180E DCT HEDMI M523 HUMSA/N0471F360 M523 IPGUD Y800 ESNIP Y810 AKRIT Y807 POLIX |
| Aircraft | B764/H-SDE3FGHIM3RWXY/LB1 |
Departure
| Time | 2026-05-06 05:07 |
|---|---|
| Airport | Los Angeles International Airport (KLAX) |
Arrival
| Time | N/A |
|---|---|
| Airport | Tokyo Haneda International Airport (RJTT) |
| Time | Latitude | Longitude | Altitude | Speed | Heading |
|---|---|---|---|---|---|
| 2026-05-06 04:34 | 33.94610 | -118.40818 | 123 ft | 0 kts | 104° |
| 2026-05-06 04:51 | 33.94613 | -118.40830 | 123 ft | 2 kts | 103° |
| 2026-05-06 04:51 | 33.94616 | -118.40847 | 123 ft | 2 kts | 103° |
| 2026-05-06 04:51 | 33.94619 | -118.40861 | 123 ft | 0 kts | 104° |
| 2026-05-06 04:52 | 33.94621 | -118.40876 | 124 ft | 2 kts | 78° |
| 2026-05-06 04:52 | 33.94614 | -118.40891 | 124 ft | 2 kts | 43° |
| 2026-05-06 04:52 | 33.94601 | -118.40900 | 124 ft | 2 kts | 9° |
| 2026-05-06 04:52 | 33.94593 | -118.40900 | 124 ft | 1 kts | 353° |
| 2026-05-06 04:53 | 33.94591 | -118.40900 | 124 ft | 0 kts | 353° |
| 2026-05-06 04:57 | 33.94593 | -118.40900 | 124 ft | 1 kts | 353° |
| 2026-05-06 04:57 | 33.94611 | -118.40903 | 124 ft | 4 kts | 353° |
| 2026-05-06 04:57 | 33.94648 | -118.40908 | 124 ft | 6 kts | 353° |
| 2026-05-06 04:58 | 33.94688 | -118.40913 | 124 ft | 5 kts | 353° |
| 2026-05-06 04:58 | 33.94704 | -118.40916 | 124 ft | 0 kts | 353° |
| 2026-05-06 04:58 | 33.94716 | -118.40918 | 124 ft | 3 kts | 353° |
| 2026-05-06 04:58 | 33.94738 | -118.40913 | 124 ft | 2 kts | 31° |
| 2026-05-06 04:59 | 33.94756 | -118.40898 | 124 ft | 3 kts | 30° |
| 2026-05-06 04:59 | 33.94780 | -118.40888 | 125 ft | 4 kts | 14° |
| 2026-05-06 04:59 | 33.94810 | -118.40880 | 126 ft | 4 kts | 23° |
| 2026-05-06 04:59 | 33.94829 | -118.40859 | 126 ft | 4 kts | 49° |
| 2026-05-06 05:00 | 33.94843 | -118.40826 | 126 ft | 4 kts | 80° |
| 2026-05-06 05:00 | 33.94848 | -118.40773 | 125 ft | 8 kts | 85° |
| 2026-05-06 05:00 | 33.94855 | -118.40691 | 123 ft | 11 kts | 84° |
| 2026-05-06 05:00 | 33.94865 | -118.40602 | 123 ft | 10 kts | 82° |
| 2026-05-06 05:01 | 33.94877 | -118.40505 | 123 ft | 12 kts | 82° |
| 2026-05-06 05:01 | 33.94888 | -118.40390 | 121 ft | 15 kts | 83° |
| 2026-05-06 05:01 | 33.94902 | -118.40253 | 119 ft | 17 kts | 84° |
| 2026-05-06 05:01 | 33.94916 | -118.40104 | 118 ft | 16 kts | 83° |
| 2026-05-06 05:02 | 33.94931 | -118.39975 | 116 ft | 13 kts | 73° |
| 2026-05-06 05:02 | 33.94942 | -118.39947 | 116 ft | 0 kts | 52° |
| 2026-05-06 05:02 | 33.94944 | -118.39945 | 116 ft | 0 kts | 52° |
| 2026-05-06 05:05 | 33.94945 | -118.39944 | 116 ft | 0 kts | 48° |
| 2026-05-06 05:05 | 33.94957 | -118.39936 | 116 ft | 5 kts | 24° |
| 2026-05-06 05:05 | 33.95010 | -118.39937 | 115 ft | 10 kts | 334° |
| 2026-05-06 05:05 | 33.95037 | -118.40004 | 116 ft | 8 kts | 265° |
| 2026-05-06 05:06 | 33.95032 | -118.40050 | 117 ft | 19 kts | 262° |
| 2026-05-06 05:06 | 33.94996 | -118.40393 | 121 ft | 63 kts | 263° |
| 2026-05-06 05:06 | 33.94922 | -118.41102 | 126 ft | 105 kts | 263° |
| 2026-05-06 05:06 | 33.94815 | -118.42139 | 123 ft | 144 kts | 263° |
| 2026-05-06 05:07 | 33.94666 | -118.43472 | 109 ft | 179 kts | 262° |
| 2026-05-06 05:07 | 33.94469 | -118.45031 | 314 ft | 195 kts | 261° |
| 2026-05-06 05:07 | 33.94231 | -118.46669 | 811 ft | 198 kts | 258° |
| 2026-05-06 05:07 | 33.93924 | -118.48339 | 988 ft | 224 kts | 259° |
| 2026-05-06 05:08 | 33.93675 | -118.50289 | 1325 ft | 237 kts | 261° |
| 2026-05-06 05:08 | 33.93436 | -118.52150 | 2326 ft | 222 kts | 263° |
| 2026-05-06 05:08 | 33.93241 | -118.53989 | 2830 ft | 229 kts | 264° |
| 2026-05-06 05:08 | 33.93055 | -118.55895 | 3397 ft | 232 kts | 265° |
| 2026-05-06 05:09 | 33.92984 | -118.57883 | 3684 ft | 246 kts | 277° |
| 2026-05-06 05:09 | 33.93114 | -118.60039 | 3768 ft | 268 kts | 272° |
| 2026-05-06 05:09 | 33.93099 | -118.62280 | 4367 ft | 269 kts | 270° |
| 2026-05-06 05:09 | 33.93024 | -118.64529 | 4900 ft | 273 kts | 268° |
| 2026-05-06 05:10 | 33.92902 | -118.66837 | 5477 ft | 275 kts | 266° |
| 2026-05-06 05:10 | 33.92758 | -118.69127 | 6052 ft | 277 kts | 266° |
| 2026-05-06 05:10 | 33.92597 | -118.71425 | 6591 ft | 280 kts | 266° |
| 2026-05-06 05:10 | 33.92422 | -118.73804 | 7126 ft | 284 kts | 266° |
| 2026-05-06 05:11 | 33.92244 | -118.76165 | 7624 ft | 289 kts | 266° |
| 2026-05-06 05:11 | 33.92059 | -118.78571 | 8156 ft | 291 kts | 266° |
| 2026-05-06 05:11 | 33.91870 | -118.80999 | 8667 ft | 295 kts | 266° |
| 2026-05-06 05:11 | 33.91714 | -118.83501 | 9153 ft | 299 kts | 272° |
| 2026-05-06 05:12 | 33.91779 | -118.86012 | 9586 ft | 304 kts | 275° |
| 2026-05-06 05:12 | 33.91856 | -118.88541 | 10137 ft | 305 kts | 275° |
| 2026-05-06 05:12 | 33.91935 | -118.91161 | 10284 ft | 324 kts | 275° |
| 2026-05-06 05:12 | 33.92019 | -118.93939 | 10338 ft | 346 kts | 274° |
| 2026-05-06 05:13 | 33.92107 | -118.96962 | 10430 ft | 368 kts | 274° |
| 2026-05-06 05:13 | 33.92272 | -119.00005 | 11076 ft | 369 kts | 282° |
| 2026-05-06 05:13 | 33.92448 | -119.01050 | 11328 ft | 368 kts | 288° |
| 2026-05-06 05:13 | 33.93020 | -119.02966 | 11751 ft | 367 kts | 299° |
| 2026-05-06 05:14 | 33.97041 | -119.10899 | 13756 ft | 374 kts | 305° |
| 2026-05-06 05:14 | 33.98400 | -119.13559 | 14436 ft | 376 kts | 305° |
| 2026-05-06 05:14 | 33.99775 | -119.16230 | 15032 ft | 381 kts | 306° |
| 2026-05-06 05:15 | 34.01375 | -119.18739 | 15605 ft | 379 kts | 320° |
| 2026-05-06 05:15 | 34.03436 | -119.20686 | 16275 ft | 376 kts | 329° |
| 2026-05-06 05:15 | 34.05584 | -119.22529 | 16849 ft | 381 kts | 328° |
| 2026-05-06 05:15 | 34.07731 | -119.24385 | 17486 ft | 383 kts | 328° |
| 2026-05-06 05:16 | 34.09902 | -119.26262 | 18065 ft | 387 kts | 328° |
| 2026-05-06 05:16 | 34.12098 | -119.28155 | 18732 ft | 388 kts | 329° |
| 2026-05-06 05:16 | 34.14303 | -119.30054 | 19267 ft | 394 kts | 330° |
| 2026-05-06 05:16 | 34.16548 | -119.31992 | 19902 ft | 396 kts | 329° |
| 2026-05-06 05:17 | 34.18781 | -119.33916 | 20484 ft | 399 kts | 329° |
| 2026-05-06 05:17 | 34.21046 | -119.35868 | 21059 ft | 402 kts | 330° |
| 2026-05-06 05:17 | 34.23365 | -119.37870 | 21516 ft | 408 kts | 330° |
| 2026-05-06 05:17 | 34.25663 | -119.39856 | 22105 ft | 409 kts | 330° |
| 2026-05-06 05:18 | 34.27982 | -119.41860 | 22633 ft | 411 kts | 331° |
| 2026-05-06 05:18 | 34.30304 | -119.43868 | 23058 ft | 416 kts | 332° |
| 2026-05-06 05:18 | 34.32668 | -119.45914 | 23606 ft | 416 kts | 331° |
| 2026-05-06 05:18 | 34.35021 | -119.47954 | 24114 ft | 417 kts | 332° |
| 2026-05-06 05:19 | 34.37408 | -119.50017 | 24439 ft | 423 kts | 331° |
| 2026-05-06 05:19 | 34.39791 | -119.52110 | 24940 ft | 424 kts | 329° |
| 2026-05-06 05:19 | 34.42010 | -119.54554 | 25232 ft | 439 kts | 319° |
| 2026-05-06 05:19 | 34.44000 | -119.57355 | 25631 ft | 442 kts | 318° |
| 2026-05-06 05:20 | 34.45341 | -119.59237 | 25952 ft | 442 kts | 318° |
| 2026-05-06 05:20 | 34.50420 | -119.66424 | 26690 ft | 452 kts | 318° |
| 2026-05-06 05:20 | 34.52461 | -119.69324 | 27200 ft | 449 kts | 318° |
| 2026-05-06 05:21 | 34.54473 | -119.72182 | 27393 ft | 454 kts | 318° |
| 2026-05-06 05:21 | 34.56531 | -119.75111 | 27748 ft | 454 kts | 318° |
| 2026-05-06 05:21 | 34.58600 | -119.78056 | 27988 ft | 457 kts | 318° |
| 2026-05-06 05:21 | 34.60655 | -119.80985 | 28334 ft | 457 kts | 318° |
| 2026-05-06 05:22 | 34.62708 | -119.83914 | 28540 ft | 461 kts | 318° |
| 2026-05-06 05:22 | 34.64788 | -119.86882 | 28788 ft | 462 kts | 318° |
| 2026-05-06 05:22 | 34.66866 | -119.89857 | 29152 ft | 461 kts | 319° |
| 2026-05-06 05:23 | 34.71043 | -119.95828 | 29548 ft | 465 kts | 318° |
| 2026-05-06 05:23 | 34.73143 | -119.98837 | 29700 ft | 469 kts | 318° |
| 2026-05-06 05:23 | 34.77320 | -120.04833 | 30081 ft | 465 kts | 318° |
| 2026-05-06 05:24 | 34.81514 | -120.10856 | 30075 ft | 468 kts | 318° |
| 2026-05-06 05:24 | 34.85714 | -120.16901 | 30070 ft | 470 kts | 318° |
| 2026-05-06 05:25 | 34.89938 | -120.22992 | 30069 ft | 473 kts | 318° |
| 2026-05-06 05:25 | 34.94175 | -120.29113 | 30069 ft | 475 kts | 317° |
| 2026-05-06 05:26 | 34.98430 | -120.35269 | 30071 ft | 477 kts | 317° |
| 2026-05-06 05:26 | 35.02722 | -120.41492 | 30071 ft | 479 kts | 317° |
| 2026-05-06 05:27 | 35.07003 | -120.47710 | 30069 ft | 480 kts | 317° |
| 2026-05-06 05:27 | 35.11280 | -120.53932 | 30083 ft | 480 kts | 317° |
| 2026-05-06 05:28 | 35.15548 | -120.60156 | 30083 ft | 478 kts | 317° |
| 2026-05-06 05:28 | 35.19815 | -120.66386 | 30082 ft | 478 kts | 317° |
| 2026-05-06 05:29 | 35.24080 | -120.72623 | 30079 ft | 479 kts | 317° |
| 2026-05-06 05:29 | 35.28357 | -120.78891 | 30071 ft | 479 kts | 317° |
| 2026-05-06 05:30 | 35.32602 | -120.85123 | 30075 ft | 479 kts | 317° |
| 2026-05-06 05:30 | 35.36836 | -120.91351 | 30067 ft | 478 kts | 316° |
| 2026-05-06 05:31 | 35.41087 | -120.97613 | 30067 ft | 478 kts | 316° |
| 2026-05-06 05:31 | 35.45333 | -121.03881 | 30072 ft | 478 kts | 316° |
| 2026-05-06 05:32 | 35.49585 | -121.10123 | 30071 ft | 476 kts | 317° |
| 2026-05-06 05:32 | 35.53867 | -121.16270 | 30075 ft | 478 kts | 317° |
| 2026-05-06 05:33 | 35.58183 | -121.22486 | 30071 ft | 478 kts | 317° |
| 2026-05-06 05:33 | 35.62469 | -121.28670 | 30071 ft | 475 kts | 317° |
| 2026-05-06 05:34 | 35.66738 | -121.34840 | 30069 ft | 475 kts | 317° |
| 2026-05-06 05:34 | 35.71016 | -121.41032 | 30073 ft | 476 kts | 317° |
| 2026-05-06 05:35 | 35.75275 | -121.47212 | 30074 ft | 476 kts | 317° |
| 2026-05-06 05:35 | 35.77396 | -121.50297 | 30495 ft | 469 kts | 317° |
| 2026-05-06 05:35 | 35.79518 | -121.53381 | 30774 ft | 469 kts | 317° |
| 2026-05-06 05:36 | 35.81621 | -121.56440 | 30926 ft | 471 kts | 317° |
| 2026-05-06 05:36 | 35.83736 | -121.59518 | 31075 ft | 473 kts | 317° |
| 2026-05-06 05:36 | 35.85849 | -121.62600 | 31301 ft | 473 kts | 317° |
| 2026-05-06 05:36 | 35.87983 | -121.65711 | 31445 ft | 475 kts | 316° |
| 2026-05-06 05:37 | 35.90100 | -121.68806 | 31646 ft | 475 kts | 316° |
| 2026-05-06 05:37 | 35.92217 | -121.71899 | 31878 ft | 474 kts | 316° |
| 2026-05-06 05:37 | 35.94307 | -121.74962 | 32086 ft | 470 kts | 316° |
| 2026-05-06 05:37 | 35.96414 | -121.78046 | 32066 ft | 470 kts | 316° |
| 2026-05-06 05:38 | 36.01046 | -121.83555 | 32092 ft | 455 kts | 332° |
| 2026-05-06 05:38 | 36.06509 | -121.87279 | 32080 ft | 449 kts | 338° |
| 2026-05-06 05:39 | 36.12047 | -121.90794 | 32092 ft | 448 kts | 338° |
| 2026-05-06 05:39 | 36.17599 | -121.94289 | 32088 ft | 449 kts | 339° |
| 2026-05-06 05:40 | 36.23181 | -121.97795 | 32094 ft | 449 kts | 338° |
| 2026-05-06 05:40 | 36.28743 | -122.01289 | 32090 ft | 450 kts | 338° |
| 2026-05-06 05:41 | 36.34324 | -122.04800 | 32093 ft | 451 kts | 338° |
| 2026-05-06 05:41 | 36.39911 | -122.08318 | 32092 ft | 452 kts | 338° |
| 2026-05-06 05:42 | 36.45513 | -122.11850 | 32096 ft | 452 kts | 338° |
| 2026-05-06 05:42 | 36.51119 | -122.15391 | 32095 ft | 451 kts | 338° |
| 2026-05-06 05:43 | 36.56719 | -122.18935 | 32095 ft | 451 kts | 338° |
| 2026-05-06 05:43 | 36.62276 | -122.22455 | 32091 ft | 452 kts | 338° |
| 2026-05-06 05:44 | 36.67865 | -122.26003 | 32094 ft | 452 kts | 338° |
| 2026-05-06 05:44 | 36.73487 | -122.29577 | 32094 ft | 451 kts | 338° |
| 2026-05-06 05:45 | 36.79067 | -122.33131 | 32098 ft | 452 kts | 338° |
| 2026-05-06 05:45 | 36.84662 | -122.36699 | 32096 ft | 452 kts | 338° |
| 2026-05-06 05:46 | 36.90271 | -122.40282 | 32099 ft | 453 kts | 338° |
| 2026-05-06 05:46 | 36.95854 | -122.43856 | 32100 ft | 453 kts | 338° |
| 2026-05-06 05:47 | 37.01458 | -122.47449 | 32097 ft | 454 kts | 338° |
| 2026-05-06 05:47 | 37.07079 | -122.51057 | 32097 ft | 453 kts | 337° |
| 2026-05-06 05:48 | 37.12693 | -122.54668 | 32111 ft | 454 kts | 338° |
| 2026-05-06 05:48 | 37.18304 | -122.58285 | 32108 ft | 454 kts | 337° |
| 2026-05-06 05:49 | 37.23885 | -122.61887 | 32112 ft | 454 kts | 338° |
| 2026-05-06 05:49 | 37.29505 | -122.65517 | 32105 ft | 453 kts | 337° |
| 2026-05-06 05:50 | 37.30442 | -122.66106 | 32101 ft | 452 kts | 339° |
| 2026-05-06 05:51 | 37.46930 | -122.74365 | 32104 ft | 450 kts | 342° |
| 2026-05-06 05:51 | 37.52774 | -122.77288 | 32109 ft | 450 kts | 342° |
| 2026-05-06 05:52 | 37.58589 | -122.80203 | 32105 ft | 450 kts | 342° |
| 2026-05-06 05:52 | 37.64400 | -122.83122 | 32106 ft | 451 kts | 342° |
| 2026-05-06 05:53 | 37.70231 | -122.86056 | 32107 ft | 451 kts | 342° |
| 2026-05-06 05:53 | 37.76031 | -122.88979 | 32107 ft | 451 kts | 342° |
| 2026-05-06 05:54 | 37.81874 | -122.91928 | 32102 ft | 451 kts | 342° |
| 2026-05-06 05:54 | 37.87664 | -122.94856 | 32104 ft | 451 kts | 342° |
| 2026-05-06 05:55 | 37.93489 | -122.97807 | 32102 ft | 451 kts | 341° |
| 2026-05-06 05:55 | 37.99327 | -123.00770 | 32102 ft | 452 kts | 341° |
| 2026-05-06 05:56 | 38.05172 | -123.03741 | 32100 ft | 451 kts | 342° |
| 2026-05-06 05:56 | 38.10974 | -123.06696 | 32104 ft | 450 kts | 341° |
| 2026-05-06 05:57 | 38.16780 | -123.09656 | 32112 ft | 451 kts | 341° |
| 2026-05-06 05:57 | 38.22562 | -123.12733 | 32103 ft | 454 kts | 335° |
| 2026-05-06 05:58 | 38.27954 | -123.16900 | 32104 ft | 456 kts | 332° |
| 2026-05-06 05:58 | 38.33357 | -123.21185 | 32109 ft | 457 kts | 332° |
| 2026-05-06 05:59 | 38.38740 | -123.25477 | 32106 ft | 456 kts | 332° |
| 2026-05-06 05:59 | 38.44076 | -123.29745 | 32107 ft | 456 kts | 332° |
| 2026-05-06 06:00 | 38.49478 | -123.34076 | 32105 ft | 457 kts | 332° |
| 2026-05-06 06:00 | 38.54827 | -123.38374 | 32105 ft | 457 kts | 331° |
| 2026-05-06 06:01 | 38.60210 | -123.42706 | 32103 ft | 456 kts | 331° |
| 2026-05-06 06:01 | 38.65572 | -123.47031 | 32104 ft | 456 kts | 331° |
| 2026-05-06 06:02 | 38.70923 | -123.51352 | 32102 ft | 457 kts | 331° |
| 2026-05-06 06:02 | 38.76289 | -123.55695 | 32098 ft | 457 kts | 331° |
| 2026-05-06 06:03 | 38.81694 | -123.60077 | 32102 ft | 457 kts | 331° |
| 2026-05-06 06:03 | 38.87052 | -123.64429 | 32106 ft | 457 kts | 331° |
| 2026-05-06 06:04 | 38.92405 | -123.68784 | 32106 ft | 458 kts | 330° |
| 2026-05-06 06:04 | 38.97630 | -123.73415 | 32107 ft | 461 kts | 321° |
| 2026-05-06 06:05 | 39.01681 | -123.79845 | 32116 ft | 471 kts | 302° |
| 2026-05-06 06:05 | 39.04657 | -123.87380 | 32105 ft | 473 kts | 300° |
| 2026-05-06 06:06 | 39.07562 | -123.94955 | 32107 ft | 474 kts | 300° |
| 2026-05-06 06:06 | 39.10449 | -124.02556 | 32111 ft | 474 kts | 300° |
| 2026-05-06 06:07 | 39.13332 | -124.10194 | 32115 ft | 474 kts | 300° |
| 2026-05-06 06:07 | 39.16179 | -124.17765 | 32113 ft | 473 kts | 300° |
| 2026-05-06 06:08 | 39.19044 | -124.25404 | 32111 ft | 474 kts | 300° |
| 2026-05-06 06:08 | 39.21899 | -124.33036 | 32110 ft | 475 kts | 300° |
| 2026-05-06 06:09 | 39.24741 | -124.40654 | 32111 ft | 475 kts | 300° |
| 2026-05-06 06:09 | 39.27590 | -124.48313 | 32111 ft | 474 kts | 300° |
| 2026-05-06 06:10 | 39.30444 | -124.56004 | 32110 ft | 473 kts | 300° |
| 2026-05-06 06:10 | 39.33268 | -124.63635 | 32112 ft | 473 kts | 300° |
| 2026-05-06 06:11 | 39.36101 | -124.71309 | 32107 ft | 474 kts | 299° |
| 2026-05-06 06:11 | 39.38920 | -124.78964 | 32107 ft | 475 kts | 299° |
| 2026-05-06 06:12 | 39.41759 | -124.86693 | 32107 ft | 475 kts | 299° |
| 2026-05-06 06:12 | 39.44588 | -124.94418 | 32113 ft | 475 kts | 299° |
| 2026-05-06 06:13 | 39.47406 | -125.02132 | 32112 ft | 474 kts | 299° |
| 2026-05-06 06:13 | 39.50199 | -125.09795 | 32109 ft | 474 kts | 299° |
| 2026-05-06 06:14 | 39.52995 | -125.17490 | 32113 ft | 475 kts | 299° |
| 2026-05-06 06:14 | 39.55811 | -125.25259 | 32118 ft | 475 kts | 299° |
| 2026-05-06 06:15 | 39.58607 | -125.32990 | 32121 ft | 476 kts | 299° |
| 2026-05-06 06:15 | 39.61397 | -125.40730 | 32119 ft | 476 kts | 299° |
| 2026-05-06 06:16 | 39.64188 | -125.48492 | 32121 ft | 475 kts | 299° |
| 2026-05-06 06:16 | 39.66968 | -125.56242 | 32123 ft | 475 kts | 298° |
| 2026-05-06 06:17 | 39.69733 | -125.63972 | 32126 ft | 475 kts | 299° |
| 2026-05-06 06:17 | 39.72503 | -125.71737 | 32124 ft | 476 kts | 298° |
| 2026-05-06 06:18 | 39.75269 | -125.79509 | 32126 ft | 476 kts | 298° |
| 2026-05-06 06:18 | 39.78033 | -125.87299 | 32128 ft | 476 kts | 298° |
| 2026-05-06 06:19 | 39.80803 | -125.95127 | 32121 ft | 476 kts | 298° |
| 2026-05-06 06:19 | 39.83559 | -126.02936 | 32115 ft | 476 kts | 298° |
| 2026-05-06 06:20 | 39.84007 | -126.04208 | 32117 ft | 476 kts | 298° |